sensor_id;sensor_type;location;lat;lon;timestamp;P1;durP1;ratioP1;P2;durP2;ratioP2
35312;SDS011;21425;50.454;30.466;2023-09-08T00:02:02;9.85;;;3.75;;
35312;SDS011;21425;50.454;30.466;2023-09-08T00:04:28;9.32;;;3.15;;
35312;SDS011;21425;50.454;30.466;2023-09-08T00:06:54;5.93;;;3.13;;
35312;SDS011;21425;50.454;30.466;2023-09-08T00:09:20;11.07;;;3.20;;
35312;SDS011;21425;50.454;30.466;2023-09-08T00:11:46;6.97;;;2.83;;
35312;SDS011;21425;50.454;30.466;2023-09-08T00:14:12;6.68;;;3.03;;
35312;SDS011;21425;50.454;30.466;2023-09-08T00:16:37;6.40;;;2.88;;
35312;SDS011;21425;50.454;30.466;2023-09-08T00:19:04;9.63;;;3.08;;
35312;SDS011;21425;50.454;30.466;2023-09-08T00:21:30;9.07;;;3.17;;
35312;SDS011;21425;50.454;30.466;2023-09-08T00:23:56;7.28;;;3.10;;
35312;SDS011;21425;50.454;30.466;2023-09-08T00:26:22;7.47;;;3.15;;
35312;SDS011;21425;50.454;30.466;2023-09-08T00:28:48;11.02;;;3.42;;
35312;SDS011;21425;50.454;30.466;2023-09-08T00:31:14;5.95;;;2.90;;
35312;SDS011;21425;50.454;30.466;2023-09-08T00:33:40;5.20;;;2.70;;
35312;SDS011;21425;50.454;30.466;2023-09-08T00:36:07;10.07;;;2.63;;
35312;SDS011;21425;50.454;30.466;2023-09-08T00:38:33;10.07;;;3.08;;
35312;SDS011;21425;50.454;30.466;2023-09-08T00:40:58;9.60;;;3.00;;
35312;SDS011;21425;50.454;30.466;2023-09-08T00:43:25;8.85;;;2.85;;
35312;SDS011;21425;50.454;30.466;2023-09-08T00:45:52;7.80;;;2.53;;
35312;SDS011;21425;50.454;30.466;2023-09-08T00:48:19;6.35;;;2.88;;
35312;SDS011;21425;50.454;30.466;2023-09-08T00:50:45;5.53;;;2.78;;
35312;SDS011;21425;50.454;30.466;2023-09-08T00:53:11;6.90;;;2.72;;
35312;SDS011;21425;50.454;30.466;2023-09-08T00:55:37;9.93;;;3.50;;
35312;SDS011;21425;50.454;30.466;2023-09-08T00:58:05;7.18;;;2.92;;
35312;SDS011;21425;50.454;30.466;2023-09-08T01:00:31;7.55;;;2.80;;
35312;SDS011;21425;50.454;30.466;2023-09-08T01:02:57;6.25;;;2.90;;
35312;SDS011;21425;50.454;30.466;2023-09-08T01:05:24;8.20;;;3.40;;
35312;SDS011;21425;50.454;30.466;2023-09-08T01:07:50;5.57;;;2.78;;
35312;SDS011;21425;50.454;30.466;2023-09-08T01:10:17;13.65;;;4.28;;
35312;SDS011;21425;50.454;30.466;2023-09-08T01:12:43;8.65;;;3.03;;
35312;SDS011;21425;50.454;30.466;2023-09-08T01:15:08;8.50;;;2.67;;
35312;SDS011;21425;50.454;30.466;2023-09-08T01:17:34;10.00;;;3.72;;
35312;SDS011;21425;50.454;30.466;2023-09-08T01:20:09;9.23;;;3.30;;
35312;SDS011;21425;50.454;30.466;2023-09-08T01:22:50;11.10;;;3.10;;
35312;SDS011;21425;50.454;30.466;2023-09-08T01:25:27;9.20;;;3.45;;
35312;SDS011;21425;50.454;30.466;2023-09-08T01:27:55;6.30;;;3.03;;
35312;SDS011;21425;50.454;30.466;2023-09-08T01:30:21;8.35;;;3.13;;
35312;SDS011;21425;50.454;30.466;2023-09-08T01:32:50;6.07;;;2.75;;
35312;SDS011;21425;50.454;30.466;2023-09-08T01:35:17;6.38;;;2.88;;
35312;SDS011;21425;50.454;30.466;2023-09-08T01:37:47;10.05;;;3.08;;
35312;SDS011;21425;50.454;30.466;2023-09-08T01:40:13;10.50;;;3.55;;
35312;SDS011;21425;50.454;30.466;2023-09-08T01:42:39;6.80;;;2.78;;
35312;SDS011;21425;50.454;30.466;2023-09-08T01:45:05;8.70;;;2.85;;
35312;SDS011;21425;50.454;30.466;2023-09-08T01:47:32;5.68;;;3.03;;
35312;SDS011;21425;50.454;30.466;2023-09-08T01:49:58;6.38;;;2.90;;
35312;SDS011;21425;50.454;30.466;2023-09-08T01:52:24;6.50;;;2.88;;
35312;SDS011;21425;50.454;30.466;2023-09-08T01:54:50;5.57;;;2.80;;
35312;SDS011;21425;50.454;30.466;2023-09-08T01:57:16;6.97;;;3.03;;
35312;SDS011;21425;50.454;30.466;2023-09-08T01:59:42;12.95;;;3.10;;
35312;SDS011;21425;50.454;30.466;2023-09-08T02:02:09;5.95;;;2.72;;
35312;SDS011;21425;50.454;30.466;2023-09-08T02:04:35;6.22;;;2.90;;
35312;SDS011;21425;50.454;30.466;2023-09-08T02:07:01;10.50;;;2.70;;
35312;SDS011;21425;50.454;30.466;2023-09-08T02:09:32;7.53;;;2.53;;
35312;SDS011;21425;50.454;30.466;2023-09-08T02:11:59;6.63;;;3.13;;
35312;SDS011;21425;50.454;30.466;2023-09-08T02:14:25;8.15;;;3.10;;
35312;SDS011;21425;50.454;30.466;2023-09-08T02:16:50;8.27;;;2.95;;
35312;SDS011;21425;50.454;30.466;2023-09-08T02:19:16;7.20;;;2.63;;
35312;SDS011;21425;50.454;30.466;2023-09-08T02:21:42;5.38;;;2.70;;
35312;SDS011;21425;50.454;30.466;2023-09-08T02:24:08;6.35;;;2.95;;
35312;SDS011;21425;50.454;30.466;2023-09-08T02:26:33;7.75;;;2.83;;
35312;SDS011;21425;50.454;30.466;2023-09-08T02:29:00;6.10;;;2.50;;
35312;SDS011;21425;50.454;30.466;2023-09-08T02:31:26;8.45;;;2.78;;
35312;SDS011;21425;50.454;30.466;2023-09-08T02:33:52;7.20;;;2.63;;
35312;SDS011;21425;50.454;30.466;2023-09-08T02:36:18;10.05;;;2.70;;
35312;SDS011;21425;50.454;30.466;2023-09-08T02:38:50;6.78;;;2.45;;
35312;SDS011;21425;50.454;30.466;2023-09-08T02:41:16;9.02;;;2.88;;
35312;SDS011;21425;50.454;30.466;2023-09-08T02:43:42;7.35;;;2.92;;
35312;SDS011;21425;50.454;30.466;2023-09-08T02:46:08;7.75;;;3.00;;
35312;SDS011;21425;50.454;30.466;2023-09-08T02:48:34;10.23;;;4.43;;
35312;SDS011;21425;50.454;30.466;2023-09-08T02:51:00;20.15;;;3.88;;
35312;SDS011;21425;50.454;30.466;2023-09-08T02:53:26;11.60;;;4.03;;
35312;SDS011;21425;50.454;30.466;2023-09-08T02:55:56;8.82;;;3.20;;
35312;SDS011;21425;50.454;30.466;2023-09-08T02:58:23;10.40;;;3.08;;
35312;SDS011;21425;50.454;30.466;2023-09-08T03:00:49;7.10;;;2.83;;
35312;SDS011;21425;50.454;30.466;2023-09-08T03:03:16;8.27;;;3.20;;
35312;SDS011;21425;50.454;30.466;2023-09-08T03:05:42;12.13;;;3.10;;
35312;SDS011;21425;50.454;30.466;2023-09-08T03:08:08;8.98;;;3.15;;
35312;SDS011;21425;50.454;30.466;2023-09-08T03:10:34;11.02;;;3.03;;
35312;SDS011;21425;50.454;30.466;2023-09-08T03:13:00;7.35;;;3.30;;
35312;SDS011;21425;50.454;30.466;2023-09-08T03:15:26;8.57;;;3.45;;
35312;SDS011;21425;50.454;30.466;2023-09-08T03:17:56;12.80;;;3.25;;
35312;SDS011;21425;50.454;30.466;2023-09-08T03:20:23;12.93;;;3.65;;
35312;SDS011;21425;50.454;30.466;2023-09-08T03:22:50;9.30;;;2.70;;
35312;SDS011;21425;50.454;30.466;2023-09-08T03:25:16;9.95;;;3.60;;
35312;SDS011;21425;50.454;30.466;2023-09-08T03:27:42;6.63;;;2.60;;
35312;SDS011;21425;50.454;30.466;2023-09-08T03:30:08;8.43;;;2.65;;
35312;SDS011;21425;50.454;30.466;2023-09-08T03:32:35;10.18;;;3.17;;
35312;SDS011;21425;50.454;30.466;2023-09-08T03:35:01;11.98;;;3.30;;
35312;SDS011;21425;50.454;30.466;2023-09-08T03:37:28;10.10;;;3.40;;
35312;SDS011;21425;50.454;30.466;2023-09-08T03:39:53;5.57;;;3.08;;
35312;SDS011;21425;50.454;30.466;2023-09-08T03:42:19;6.63;;;2.80;;
35312;SDS011;21425;50.454;30.466;2023-09-08T03:44:45;7.63;;;3.13;;
35312;SDS011;21425;50.454;30.466;2023-09-08T03:47:11;11.40;;;3.15;;
35312;SDS011;21425;50.454;30.466;2023-09-08T03:49:37;9.50;;;3.33;;
35312;SDS011;21425;50.454;30.466;2023-09-08T03:52:03;9.10;;;3.17;;
35312;SDS011;21425;50.454;30.466;2023-09-08T03:54:29;9.10;;;3.10;;
35312;SDS011;21425;50.454;30.466;2023-09-08T03:56:55;7.95;;;3.08;;
35312;SDS011;21425;50.454;30.466;2023-09-08T03:59:21;7.80;;;3.17;;
35312;SDS011;21425;50.454;30.466;2023-09-08T04:01:47;9.30;;;2.83;;
35312;SDS011;21425;50.454;30.466;2023-09-08T04:04:12;10.90;;;3.25;;
35312;SDS011;21425;50.454;30.466;2023-09-08T04:06:38;9.95;;;2.92;;
35312;SDS011;21425;50.454;30.466;2023-09-08T04:09:04;6.88;;;2.72;;
35312;SDS011;21425;50.454;30.466;2023-09-08T04:11:30;7.72;;;3.45;;
35312;SDS011;21425;50.454;30.466;2023-09-08T04:13:55;11.77;;;3.50;;
35312;SDS011;21425;50.454;30.466;2023-09-08T04:16:21;10.15;;;3.20;;
35312;SDS011;21425;50.454;30.466;2023-09-08T04:18:47;5.60;;;2.80;;
35312;SDS011;21425;50.454;30.466;2023-09-08T04:21:13;8.88;;;3.08;;
35312;SDS011;21425;50.454;30.466;2023-09-08T04:23:39;6.05;;;2.88;;
35312;SDS011;21425;50.454;30.466;2023-09-08T04:26:05;5.13;;;2.20;;
35312;SDS011;21425;50.454;30.466;2023-09-08T04:28:31;6.53;;;2.28;;
35312;SDS011;21425;50.454;30.466;2023-09-08T04:30:56;5.38;;;1.88;;
35312;SDS011;21425;50.454;30.466;2023-09-08T04:33:23;8.13;;;2.55;;
35312;SDS011;21425;50.454;30.466;2023-09-08T04:35:49;8.55;;;3.65;;
35312;SDS011;21425;50.454;30.466;2023-09-08T04:38:14;8.57;;;3.25;;
35312;SDS011;21425;50.454;30.466;2023-09-08T04:40:40;5.95;;;2.65;;
35312;SDS011;21425;50.454;30.466;2023-09-08T04:43:07;11.00;;;2.95;;
35312;SDS011;21425;50.454;30.466;2023-09-08T04:45:32;6.20;;;2.45;;
35312;SDS011;21425;50.454;30.466;2023-09-08T04:47:58;5.97;;;2.97;;
35312;SDS011;21425;50.454;30.466;2023-09-08T04:50:24;7.05;;;2.38;;
35312;SDS011;21425;50.454;30.466;2023-09-08T04:52:50;6.40;;;2.83;;
35312;SDS011;21425;50.454;30.466;2023-09-08T04:55:16;6.07;;;2.60;;
35312;SDS011;21425;50.454;30.466;2023-09-08T04:57:42;9.20;;;2.97;;
35312;SDS011;21425;50.454;30.466;2023-09-08T05:00:08;6.78;;;3.10;;
35312;SDS011;21425;50.454;30.466;2023-09-08T05:02:34;8.95;;;2.92;;
35312;SDS011;21425;50.454;30.466;2023-09-08T05:05:00;7.05;;;2.90;;
35312;SDS011;21425;50.454;30.466;2023-09-08T05:07:25;7.75;;;2.72;;
35312;SDS011;21425;50.454;30.466;2023-09-08T05:09:51;10.60;;;3.17;;
35312;SDS011;21425;50.454;30.466;2023-09-08T05:12:17;13.60;;;2.40;;
35312;SDS011;21425;50.454;30.466;2023-09-08T05:14:43;4.80;;;2.55;;
35312;SDS011;21425;50.454;30.466;2023-09-08T05:17:08;7.07;;;2.97;;
35312;SDS011;21425;50.454;30.466;2023-09-08T05:19:34;5.30;;;2.60;;
35312;SDS011;21425;50.454;30.466;2023-09-08T05:22:00;9.05;;;2.53;;
35312;SDS011;21425;50.454;30.466;2023-09-08T05:24:26;7.32;;;2.95;;
35312;SDS011;21425;50.454;30.466;2023-09-08T05:26:52;11.13;;;2.63;;
35312;SDS011;21425;50.454;30.466;2023-09-08T05:29:18;7.72;;;2.72;;
35312;SDS011;21425;50.454;30.466;2023-09-08T05:31:43;7.38;;;2.50;;
35312;SDS011;21425;50.454;30.466;2023-09-08T05:34:09;8.02;;;2.03;;
35312;SDS011;21425;50.454;30.466;2023-09-08T05:36:35;7.60;;;2.03;;
35312;SDS011;21425;50.454;30.466;2023-09-08T05:39:05;9.52;;;2.45;;
35312;SDS011;21425;50.454;30.466;2023-09-08T05:41:31;9.23;;;2.10;;
35312;SDS011;21425;50.454;30.466;2023-09-08T05:43:58;9.65;;;2.25;;
35312;SDS011;21425;50.454;30.466;2023-09-08T05:46:24;10.88;;;2.65;;
35312;SDS011;21425;50.454;30.466;2023-09-08T05:48:50;4.35;;;1.92;;
35312;SDS011;21425;50.454;30.466;2023-09-08T05:51:15;7.15;;;2.25;;
35312;SDS011;21425;50.454;30.466;2023-09-08T05:53:41;8.02;;;2.20;;
35312;SDS011;21425;50.454;30.466;2023-09-08T05:56:07;6.85;;;1.95;;
35312;SDS011;21425;50.454;30.466;2023-09-08T05:58:33;6.03;;;2.10;;
35312;SDS011;21425;50.454;30.466;2023-09-08T06:01:00;6.20;;;2.55;;
35312;SDS011;21425;50.454;30.466;2023-09-08T06:03:27;7.85;;;2.17;;
35312;SDS011;21425;50.454;30.466;2023-09-08T06:05:53;5.00;;;2.10;;
35312;SDS011;21425;50.454;30.466;2023-09-08T06:08:19;6.97;;;1.98;;
35312;SDS011;21425;50.454;30.466;2023-09-08T06:10:45;5.85;;;2.10;;
35312;SDS011;21425;50.454;30.466;2023-09-08T06:13:10;6.25;;;2.38;;
35312;SDS011;21425;50.454;30.466;2023-09-08T06:15:36;6.03;;;2.13;;
35312;SDS011;21425;50.454;30.466;2023-09-08T06:18:02;11.23;;;2.13;;
35312;SDS011;21425;50.454;30.466;2023-09-08T06:20:27;6.75;;;2.35;;
35312;SDS011;21425;50.454;30.466;2023-09-08T06:22:53;5.72;;;1.88;;
35312;SDS011;21425;50.454;30.466;2023-09-08T06:25:19;5.90;;;2.20;;
35312;SDS011;21425;50.454;30.466;2023-09-08T06:27:45;6.03;;;2.10;;
35312;SDS011;21425;50.454;30.466;2023-09-08T06:30:11;6.75;;;1.60;;
35312;SDS011;21425;50.454;30.466;2023-09-08T06:32:41;7.38;;;2.70;;
35312;SDS011;21425;50.454;30.466;2023-09-08T06:35:08;8.00;;;2.13;;
35312;SDS011;21425;50.454;30.466;2023-09-08T06:37:37;6.53;;;2.20;;
35312;SDS011;21425;50.454;30.466;2023-09-08T06:40:04;6.78;;;2.03;;
35312;SDS011;21425;50.454;30.466;2023-09-08T06:42:30;4.78;;;1.88;;
35312;SDS011;21425;50.454;30.466;2023-09-08T06:44:56;6.95;;;1.90;;
35312;SDS011;21425;50.454;30.466;2023-09-08T06:47:22;6.28;;;2.00;;
35312;SDS011;21425;50.454;30.466;2023-09-08T06:49:48;6.55;;;1.52;;
35312;SDS011;21425;50.454;30.466;2023-09-08T06:52:14;6.22;;;2.08;;
35312;SDS011;21425;50.454;30.466;2023-09-08T06:54:40;4.90;;;1.60;;
35312;SDS011;21425;50.454;30.466;2023-09-08T06:57:05;3.63;;;1.60;;
35312;SDS011;21425;50.454;30.466;2023-09-08T06:59:31;7.50;;;1.50;;
35312;SDS011;21425;50.454;30.466;2023-09-08T07:01:57;6.20;;;1.60;;
35312;SDS011;21425;50.454;30.466;2023-09-08T07:04:23;5.13;;;1.90;;
35312;SDS011;21425;50.454;30.466;2023-09-08T07:06:48;3.58;;;1.42;;
35312;SDS011;21425;50.454;30.466;2023-09-08T07:09:15;4.97;;;1.65;;
35312;SDS011;21425;50.454;30.466;2023-09-08T07:11:41;4.18;;;1.42;;
35312;SDS011;21425;50.454;30.466;2023-09-08T07:14:06;4.20;;;1.88;;
35312;SDS011;21425;50.454;30.466;2023-09-08T07:16:33;4.93;;;1.48;;
35312;SDS011;21425;50.454;30.466;2023-09-08T07:18:59;7.97;;;1.65;;
35312;SDS011;21425;50.454;30.466;2023-09-08T07:21:26;4.63;;;1.20;;
35312;SDS011;21425;50.454;30.466;2023-09-08T07:23:52;4.45;;;1.25;;
35312;SDS011;21425;50.454;30.466;2023-09-08T07:26:19;9.50;;;1.65;;
35312;SDS011;21425;50.454;30.466;2023-09-08T07:28:45;5.82;;;1.60;;
35312;SDS011;21425;50.454;30.466;2023-09-08T07:31:11;7.90;;;2.33;;
35312;SDS011;21425;50.454;30.466;2023-09-08T07:33:37;3.70;;;1.70;;
35312;SDS011;21425;50.454;30.466;2023-09-08T07:36:06;6.35;;;1.50;;
35312;SDS011;21425;50.454;30.466;2023-09-08T07:38:32;2.95;;;1.35;;
35312;SDS011;21425;50.454;30.466;2023-09-08T07:40:58;7.40;;;1.60;;
35312;SDS011;21425;50.454;30.466;2023-09-08T07:43:27;3.97;;;1.67;;
35312;SDS011;21425;50.454;30.466;2023-09-08T07:45:53;3.30;;;1.02;;
35312;SDS011;21425;50.454;30.466;2023-09-08T07:48:19;3.78;;;1.48;;
35312;SDS011;21425;50.454;30.466;2023-09-08T07:50:45;3.22;;;1.08;;
35312;SDS011;21425;50.454;30.466;2023-09-08T07:53:11;5.55;;;1.80;;
35312;SDS011;21425;50.454;30.466;2023-09-08T07:55:37;2.88;;;1.27;;
35312;SDS011;21425;50.454;30.466;2023-09-08T07:58:03;5.38;;;1.40;;
35312;SDS011;21425;50.454;30.466;2023-09-08T08:00:29;4.07;;;1.35;;
35312;SDS011;21425;50.454;30.466;2023-09-08T08:02:55;3.85;;;1.40;;
35312;SDS011;21425;50.454;30.466;2023-09-08T08:05:22;3.50;;;1.20;;
35312;SDS011;21425;50.454;30.466;2023-09-08T08:07:49;4.25;;;1.38;;
35312;SDS011;21425;50.454;30.466;2023-09-08T08:10:15;4.07;;;1.92;;
35312;SDS011;21425;50.454;30.466;2023-09-08T08:12:41;4.38;;;1.40;;
35312;SDS011;21425;50.454;30.466;2023-09-08T08:15:08;3.70;;;1.15;;
35312;SDS011;21425;50.454;30.466;2023-09-08T08:17:35;5.22;;;1.25;;
35312;SDS011;21425;50.454;30.466;2023-09-08T08:20:01;5.18;;;1.55;;
35312;SDS011;21425;50.454;30.466;2023-09-08T08:22:35;4.00;;;1.40;;
35312;SDS011;21425;50.454;30.466;2023-09-08T08:25:02;4.68;;;1.30;;
35312;SDS011;21425;50.454;30.466;2023-09-08T08:27:28;6.40;;;1.25;;
35312;SDS011;21425;50.454;30.466;2023-09-08T08:29:56;3.20;;;0.98;;
35312;SDS011;21425;50.454;30.466;2023-09-08T08:32:24;4.30;;;1.30;;
35312;SDS011;21425;50.454;30.466;2023-09-08T08:34:50;4.60;;;1.10;;
35312;SDS011;21425;50.454;30.466;2023-09-08T08:37:16;4.65;;;1.40;;
35312;SDS011;21425;50.454;30.466;2023-09-08T08:39:42;2.67;;;1.20;;
35312;SDS011;21425;50.454;30.466;2023-09-08T08:42:11;4.38;;;1.50;;
35312;SDS011;21425;50.454;30.466;2023-09-08T08:44:37;5.72;;;1.02;;
35312;SDS011;21425;50.454;30.466;2023-09-08T08:47:05;3.60;;;1.15;;
35312;SDS011;21425;50.454;30.466;2023-09-08T08:49:32;5.00;;;1.73;;
35312;SDS011;21425;50.454;30.466;2023-09-08T08:51:59;3.80;;;1.40;;
35312;SDS011;21425;50.454;30.466;2023-09-08T08:54:28;4.15;;;1.15;;
35312;SDS011;21425;50.454;30.466;2023-09-08T08:56:54;4.63;;;1.02;;
35312;SDS011;21425;50.454;30.466;2023-09-08T08:59:21;6.90;;;1.17;;
35312;SDS011;21425;50.454;30.466;2023-09-08T09:01:47;5.30;;;1.45;;
35312;SDS011;21425;50.454;30.466;2023-09-08T09:04:14;5.45;;;1.13;;
35312;SDS011;21425;50.454;30.466;2023-09-08T09:06:40;8.20;;;1.48;;
35312;SDS011;21425;50.454;30.466;2023-09-08T09:09:06;6.97;;;1.60;;
35312;SDS011;21425;50.454;30.466;2023-09-08T09:11:33;4.78;;;1.50;;
35312;SDS011;21425;50.454;30.466;2023-09-08T09:13:59;3.83;;;1.38;;
35312;SDS011;21425;50.454;30.466;2023-09-08T09:16:40;4.45;;;1.40;;
35312;SDS011;21425;50.454;30.466;2023-09-08T09:19:06;2.70;;;1.27;;
35312;SDS011;21425;50.454;30.466;2023-09-08T09:21:44;6.05;;;1.85;;
35312;SDS011;21425;50.454;30.466;2023-09-08T09:24:16;4.78;;;1.38;;
35312;SDS011;21425;50.454;30.466;2023-09-08T09:26:42;5.50;;;1.30;;
35312;SDS011;21425;50.454;30.466;2023-09-08T09:29:11;5.88;;;1.33;;
35312;SDS011;21425;50.454;30.466;2023-09-08T09:31:42;3.78;;;1.30;;
35312;SDS011;21425;50.454;30.466;2023-09-08T09:34:15;2.42;;;1.02;;
35312;SDS011;21425;50.454;30.466;2023-09-08T09:36:42;3.28;;;1.20;;
35312;SDS011;21425;50.454;30.466;2023-09-08T09:39:09;6.45;;;1.50;;
35312;SDS011;21425;50.454;30.466;2023-09-08T09:41:35;2.90;;;0.95;;
35312;SDS011;21425;50.454;30.466;2023-09-08T09:44:01;4.93;;;1.20;;
35312;SDS011;21425;50.454;30.466;2023-09-08T09:46:29;5.68;;;1.20;;
35312;SDS011;21425;50.454;30.466;2023-09-08T09:48:55;3.47;;;1.00;;
35312;SDS011;21425;50.454;30.466;2023-09-08T09:51:23;4.30;;;1.40;;
35312;SDS011;21425;50.454;30.466;2023-09-08T09:53:50;2.30;;;1.00;;
35312;SDS011;21425;50.454;30.466;2023-09-08T09:56:16;2.40;;;1.10;;
35312;SDS011;21425;50.454;30.466;2023-09-08T09:58:43;3.33;;;1.17;;
35312;SDS011;21425;50.454;30.466;2023-09-08T10:01:10;3.92;;;1.20;;
35312;SDS011;21425;50.454;30.466;2023-09-08T10:03:39;3.85;;;1.13;;
35312;SDS011;21425;50.454;30.466;2023-09-08T10:06:05;6.47;;;1.20;;
35312;SDS011;21425;50.454;30.466;2023-09-08T10:08:33;3.83;;;1.10;;
35312;SDS011;21425;50.454;30.466;2023-09-08T10:11:02;2.65;;;1.10;;
35312;SDS011;21425;50.454;30.466;2023-09-08T10:13:31;2.40;;;1.05;;
35312;SDS011;21425;50.454;30.466;2023-09-08T10:16:08;4.18;;;1.20;;
35312;SDS011;21425;50.454;30.466;2023-09-08T10:18:38;3.13;;;1.13;;
35312;SDS011;21425;50.454;30.466;2023-09-08T10:21:07;7.55;;;1.23;;
35312;SDS011;21425;50.454;30.466;2023-09-08T10:23:36;3.63;;;1.20;;
35312;SDS011;21425;50.454;30.466;2023-09-08T10:26:06;3.53;;;1.25;;
35312;SDS011;21425;50.454;30.466;2023-09-08T10:28:35;4.78;;;1.38;;
35312;SDS011;21425;50.454;30.466;2023-09-08T10:31:02;3.35;;;1.20;;
35312;SDS011;21425;50.454;30.466;2023-09-08T10:33:29;2.92;;;1.27;;
35312;SDS011;21425;50.454;30.466;2023-09-08T10:35:56;5.95;;;1.63;;
35312;SDS011;21425;50.454;30.466;2023-09-08T10:40:54;2.45;;;1.15;;
35312;SDS011;21425;50.454;30.466;2023-09-08T10:43:39;2.83;;;1.23;;
35312;SDS011;21425;50.454;30.466;2023-09-08T10:46:09;4.38;;;1.17;;
35312;SDS011;21425;50.454;30.466;2023-09-08T10:48:41;6.55;;;1.35;;
35312;SDS011;21425;50.454;30.466;2023-09-08T10:51:12;4.97;;;1.33;;
35312;SDS011;21425;50.454;30.466;2023-09-08T10:53:39;2.78;;;1.33;;
35312;SDS011;21425;50.454;30.466;2023-09-08T10:56:05;3.22;;;1.02;;
35312;SDS011;21425;50.454;30.466;2023-09-08T10:58:33;3.40;;;1.33;;
35312;SDS011;21425;50.454;30.466;2023-09-08T11:01:01;5.72;;;1.50;;
35312;SDS011;21425;50.454;30.466;2023-09-08T11:06:04;4.07;;;1.10;;
35312;SDS011;21425;50.454;30.466;2023-09-08T11:08:30;3.97;;;1.02;;
35312;SDS011;21425;50.454;30.466;2023-09-08T11:11:00;5.38;;;1.33;;
35312;SDS011;21425;50.454;30.466;2023-09-08T11:13:27;2.35;;;1.30;;
35312;SDS011;21425;50.454;30.466;2023-09-08T11:15:53;2.42;;;1.02;;
35312;SDS011;21425;50.454;30.466;2023-09-08T11:18:26;1.77;;;0.85;;
35312;SDS011;21425;50.454;30.466;2023-09-08T11:20:52;3.38;;;1.45;;
35312;SDS011;21425;50.454;30.466;2023-09-08T11:23:18;2.50;;;1.40;;
35312;SDS011;21425;50.454;30.466;2023-09-08T11:25:44;2.10;;;1.10;;
35312;SDS011;21425;50.454;30.466;2023-09-08T11:28:10;2.65;;;1.15;;
35312;SDS011;21425;50.454;30.466;2023-09-08T11:30:37;2.70;;;1.17;;
35312;SDS011;21425;50.454;30.466;2023-09-08T11:33:03;4.50;;;1.50;;
35312;SDS011;21425;50.454;30.466;2023-09-08T11:35:31;2.58;;;1.20;;
35312;SDS011;21425;50.454;30.466;2023-09-08T11:38:00;4.47;;;1.27;;
35312;SDS011;21425;50.454;30.466;2023-09-08T11:40:27;2.85;;;1.42;;
35312;SDS011;21425;50.454;30.466;2023-09-08T11:42:53;6.35;;;1.45;;
35312;SDS011;21425;50.454;30.466;2023-09-08T11:45:19;3.58;;;1.10;;
35312;SDS011;21425;50.454;30.466;2023-09-08T11:47:48;6.00;;;1.35;;
35312;SDS011;21425;50.454;30.466;2023-09-08T11:50:14;3.50;;;1.27;;
35312;SDS011;21425;50.454;30.466;2023-09-08T11:52:48;4.25;;;1.25;;
35312;SDS011;21425;50.454;30.466;2023-09-08T11:55:15;5.40;;;1.48;;
35312;SDS011;21425;50.454;30.466;2023-09-08T11:57:43;7.53;;;1.55;;
35312;SDS011;21425;50.454;30.466;2023-09-08T12:00:10;5.38;;;1.42;;
35312;SDS011;21425;50.454;30.466;2023-09-08T12:02:42;3.33;;;1.70;;
35312;SDS011;21425;50.454;30.466;2023-09-08T12:05:14;4.97;;;1.70;;
35312;SDS011;21425;50.454;30.466;2023-09-08T12:07:46;5.50;;;2.63;;
35312;SDS011;21425;50.454;30.466;2023-09-08T12:10:13;4.63;;;1.80;;
35312;SDS011;21425;50.454;30.466;2023-09-08T12:12:43;6.65;;;2.13;;
35312;SDS011;21425;50.454;30.466;2023-09-08T12:15:09;3.85;;;1.90;;
35312;SDS011;21425;50.454;30.466;2023-09-08T12:17:46;4.25;;;2.30;;
35312;SDS011;21425;50.454;30.466;2023-09-08T12:20:13;6.50;;;2.65;;
35312;SDS011;21425;50.454;30.466;2023-09-08T12:22:48;5.30;;;2.92;;
35312;SDS011;21425;50.454;30.466;2023-09-08T12:25:17;4.13;;;2.47;;
35312;SDS011;21425;50.454;30.466;2023-09-08T12:27:49;8.70;;;2.67;;
35312;SDS011;21425;50.454;30.466;2023-09-08T12:30:19;3.88;;;2.20;;
35312;SDS011;21425;50.454;30.466;2023-09-08T12:32:45;6.60;;;2.85;;
35312;SDS011;21425;50.454;30.466;2023-09-08T12:35:18;4.68;;;2.92;;
35312;SDS011;21425;50.454;30.466;2023-09-08T12:37:46;4.60;;;2.97;;
35312;SDS011;21425;50.454;30.466;2023-09-08T12:40:13;4.00;;;3.00;;
35312;SDS011;21425;50.454;30.466;2023-09-08T12:42:40;6.40;;;3.03;;
35312;SDS011;21425;50.454;30.466;2023-09-08T12:45:06;6.22;;;2.80;;
35312;SDS011;21425;50.454;30.466;2023-09-08T12:47:32;7.63;;;3.20;;
35312;SDS011;21425;50.454;30.466;2023-09-08T12:50:00;4.07;;;2.85;;
35312;SDS011;21425;50.454;30.466;2023-09-08T12:52:26;6.18;;;3.08;;
35312;SDS011;21425;50.454;30.466;2023-09-08T12:54:51;3.75;;;2.78;;
35312;SDS011;21425;50.454;30.466;2023-09-08T12:57:17;5.10;;;3.33;;
35312;SDS011;21425;50.454;30.466;2023-09-08T12:59:43;6.60;;;3.33;;
35312;SDS011;21425;50.454;30.466;2023-09-08T13:02:09;4.97;;;2.97;;
35312;SDS011;21425;50.454;30.466;2023-09-08T13:04:37;4.97;;;2.75;;
35312;SDS011;21425;50.454;30.466;2023-09-08T13:07:03;3.60;;;2.65;;
35312;SDS011;21425;50.454;30.466;2023-09-08T13:09:29;6.28;;;2.17;;
35312;SDS011;21425;50.454;30.466;2023-09-08T13:11:55;4.28;;;2.40;;
35312;SDS011;21425;50.454;30.466;2023-09-08T13:14:20;5.45;;;2.35;;
35312;SDS011;21425;50.454;30.466;2023-09-08T13:16:46;3.40;;;2.22;;
35312;SDS011;21425;50.454;30.466;2023-09-08T13:19:12;3.78;;;2.28;;
35312;SDS011;21425;50.454;30.466;2023-09-08T13:21:38;6.00;;;2.35;;
35312;SDS011;21425;50.454;30.466;2023-09-08T13:24:05;4.82;;;2.90;;
35312;SDS011;21425;50.454;30.466;2023-09-08T13:26:32;3.95;;;2.40;;
35312;SDS011;21425;50.454;30.466;2023-09-08T13:28:58;7.30;;;2.78;;
35312;SDS011;21425;50.454;30.466;2023-09-08T13:31:24;4.30;;;2.60;;
35312;SDS011;21425;50.454;30.466;2023-09-08T13:33:50;3.75;;;2.40;;
35312;SDS011;21425;50.454;30.466;2023-09-08T13:36:16;5.40;;;2.45;;
35312;SDS011;21425;50.454;30.466;2023-09-08T13:38:42;5.88;;;2.33;;
35312;SDS011;21425;50.454;30.466;2023-09-08T13:41:08;5.28;;;2.33;;
35312;SDS011;21425;50.454;30.466;2023-09-08T13:43:34;4.95;;;2.53;;
35312;SDS011;21425;50.454;30.466;2023-09-08T13:46:00;9.23;;;2.40;;
35312;SDS011;21425;50.454;30.466;2023-09-08T13:48:26;3.58;;;1.95;;
35312;SDS011;21425;50.454;30.466;2023-09-08T13:50:52;4.18;;;2.40;;
35312;SDS011;21425;50.454;30.466;2023-09-08T13:53:18;5.88;;;2.30;;
35312;SDS011;21425;50.454;30.466;2023-09-08T13:55:44;4.53;;;2.33;;
35312;SDS011;21425;50.454;30.466;2023-09-08T13:58:09;6.63;;;2.35;;
35312;SDS011;21425;50.454;30.466;2023-09-08T14:00:36;4.70;;;1.92;;
35312;SDS011;21425;50.454;30.466;2023-09-08T14:03:03;5.43;;;2.10;;
35312;SDS011;21425;50.454;30.466;2023-09-08T14:05:29;5.18;;;2.00;;
35312;SDS011;21425;50.454;30.466;2023-09-08T14:07:55;3.55;;;2.08;;
35312;SDS011;21425;50.454;30.466;2023-09-08T14:10:21;2.97;;;2.30;;
35312;SDS011;21425;50.454;30.466;2023-09-08T14:12:47;3.83;;;1.85;;
35312;SDS011;21425;50.454;30.466;2023-09-08T14:15:13;5.63;;;1.98;;
35312;SDS011;21425;50.454;30.466;2023-09-08T14:17:41;3.30;;;1.80;;
35312;SDS011;21425;50.454;30.466;2023-09-08T14:20:07;6.32;;;2.00;;
35312;SDS011;21425;50.454;30.466;2023-09-08T14:22:34;4.13;;;1.88;;
35312;SDS011;21425;50.454;30.466;2023-09-08T14:25:00;5.28;;;2.00;;
35312;SDS011;21425;50.454;30.466;2023-09-08T14:27:26;5.30;;;2.40;;
35312;SDS011;21425;50.454;30.466;2023-09-08T14:29:51;3.50;;;1.67;;
35312;SDS011;21425;50.454;30.466;2023-09-08T14:32:17;3.15;;;1.80;;
35312;SDS011;21425;50.454;30.466;2023-09-08T14:34:43;4.53;;;1.75;;
35312;SDS011;21425;50.454;30.466;2023-09-08T14:37:09;3.38;;;2.13;;